Time;durP1;ratioP1;P1;durP2;ratioP2;P2;SDS_P1;SDS_P2;PMS_P1;PMS_P2;Temp;Humidity;BMP_temperature;BMP_pressure;BME280_temperature;BME280_humidity;BME280_pressure;Samples;Min_cycle;Max_cycle;Signal;HPM_P1;HPM_P2
2022/07/25 00:02:15;;;;;;;14.85;9.75;;;;;;;23.02;62.28;100925.22;5072003;28;20790;-85
2022/07/25 00:04:41;;;;;;;14.25;9.70;;;;;;;23.03;62.22;100921.34;5079399;28;20115;-85
2022/07/25 00:07:06;;;;;;;14.82;9.75;;;;;;;22.96;63.01;100912.59;5071322;28;20064;-85
2022/07/25 00:09:32;;;;;;;14.23;9.93;;;;;;;22.98;62.68;100918.63;5061491;28;21359;-85
2022/07/25 00:11:57;;;;;;;13.98;9.82;;;;;;;22.88;63.21;100903.00;5079558;28;20908;-84
2022/07/25 00:14:23;;;;;;;13.82;9.75;;;;;;;22.90;63.06;100907.13;5079990;28;20046;-85
2022/07/25 00:16:48;;;;;;;14.90;10.35;;;;;;;22.90;62.95;100906.28;5071718;28;20237;-85
2022/07/25 00:19:13;;;;;;;14.13;10.15;;;;;;;22.89;63.29;100904.66;5079461;28;20039;-85
2022/07/25 00:21:39;;;;;;;14.75;10.25;;;;;;;22.84;63.33;100901.94;5079229;28;20147;-84
2022/07/25 00:24:05;;;;;;;15.80;10.57;;;;;;;22.76;63.21;100895.13;5079712;28;20540;-84
2022/07/25 00:26:31;;;;;;;14.38;10.23;;;;;;;22.68;64.04;100902.09;5080012;28;20117;-85
2022/07/25 00:28:56;;;;;;;13.80;9.95;;;;;;;22.63;64.08;100891.13;5079253;28;20040;-85
2022/07/25 00:31:21;;;;;;;15.43;10.55;;;;;;;22.66;63.87;100896.06;5044053;28;20048;-85
2022/07/25 00:33:47;;;;;;;14.35;10.65;;;;;;;22.64;63.84;100887.22;5078363;28;20407;-84
2022/07/25 00:36:12;;;;;;;14.98;10.77;;;;;;;22.67;63.61;100881.13;5079078;28;20039;-85
2022/07/25 00:38:37;;;;;;;15.00;11.40;;;;;;;22.63;63.76;100874.56;5079038;28;20089;-85
2022/07/25 00:41:03;;;;;;;16.10;11.10;;;;;;;22.60;64.05;100880.63;5079162;28;20038;-84
2022/07/25 00:43:29;;;;;;;15.93;10.52;;;;;;;22.56;64.09;100874.06;5078265;28;20869;-85
2022/07/25 00:45:54;;;;;;;15.88;10.15;;;;;;;22.60;63.96;100875.13;5079238;28;20557;-85
2022/07/25 00:48:20;;;;;;;14.43;10.77;;;;;;;22.57;63.90;100872.94;5053272;28;20126;-84
2022/07/25 00:50:45;;;;;;;14.77;10.63;;;;;;;22.50;63.93;100873.28;5079107;28;20515;-84
2022/07/25 00:53:11;;;;;;;14.70;11.05;;;;;;;22.46;64.08;100869.47;5053931;28;20036;-85
2022/07/25 00:55:36;;;;;;;15.05;10.80;;;;;;;22.41;64.81;100864.00;5060276;28;20480;-84
2022/07/25 00:58:02;;;;;;;16.35;11.35;;;;;;;22.40;64.38;100854.09;5078930;28;20044;-84
2022/07/25 01:00:27;;;;;;;15.00;11.13;;;;;;;22.41;64.57;100861.22;5077278;28;20123;-84
2022/07/25 01:02:52;;;;;;;15.38;11.85;;;;;;;22.38;64.91;100856.31;5078382;28;20060;-85
2022/07/25 01:05:18;;;;;;;15.25;11.40;;;;;;;22.35;64.71;100854.13;5078258;28;20079;-85
2022/07/25 01:07:45;;;;;;;17.20;11.77;;;;;;;22.31;64.75;100856.63;5078295;28;20072;-85
2022/07/25 01:10:10;;;;;;;16.13;11.90;;;;;;;22.29;65.05;100850.56;5078605;28;20477;-85
2022/07/25 01:12:51;;;;;;;16.95;11.80;;;;;;;22.29;64.45;100839.53;5078352;28;20501;-84
2022/07/25 01:15:22;;;;;;;17.38;11.63;;;;;;;22.24;64.71;100845.09;5078138;28;20076;-84
2022/07/25 01:17:48;;;;;;;16.45;10.82;;;;;;;22.23;64.31;100840.69;5078394;28;20600;-85
2022/07/25 01:20:17;;;;;;;14.20;11.35;;;;;;;22.17;65.33;100836.34;5078633;28;20543;-84
2022/07/25 01:22:43;;;;;;;17.08;11.15;;;;;;;22.13;65.25;100827.81;5077858;28;20036;-85
2022/07/25 01:25:10;;;;;;;14.95;10.70;;;;;;;22.14;64.92;100834.16;5078480;28;20044;-84
2022/07/25 01:27:36;;;;;;;14.77;10.93;;;;;;;22.06;65.43;100827.34;5077576;28;20127;-84
2022/07/25 01:30:05;;;;;;;15.07;10.95;;;;;;;22.04;65.00;100824.84;5077890;28;20043;-84
2022/07/25 01:32:30;;;;;;;16.13;11.05;;;;;;;21.99;65.26;100813.88;5078102;28;20036;-84
2022/07/25 01:34:56;;;;;;;15.43;10.82;;;;;;;22.00;65.32;100826.53;5078566;28;20322;-85
2022/07/25 01:37:21;;;;;;;14.32;11.43;;;;;;;22.01;65.32;100825.44;5078087;28;20072;-84
2022/07/25 01:39:47;;;;;;;18.00;10.85;;;;;;;21.93;65.33;100817.78;5078135;28;20032;-84
2022/07/25 01:42:12;;;;;;;16.25;10.70;;;;;;;21.97;65.22;100815.28;5058889;28;20408;-84
2022/07/25 01:44:37;;;;;;;13.77;10.95;;;;;;;21.92;64.82;100805.94;5077688;28;20044;-84
2022/07/25 01:47:03;;;;;;;14.63;10.82;;;;;;;21.94;65.21;100811.16;5078406;28;20044;-85
2022/07/25 01:49:28;;;;;;;14.18;10.40;;;;;;;21.91;65.14;100801.53;5070729;28;20043;-85
2022/07/25 01:51:54;;;;;;;14.60;10.30;;;;;;;21.87;65.17;100794.94;5059847;28;20334;-85
2022/07/25 01:54:19;;;;;;;13.75;10.30;;;;;;;21.84;65.44;100794.69;5078093;28;22072;-84
2022/07/25 01:56:44;;;;;;;14.30;9.90;;;;;;;21.86;65.09;100792.47;5078223;28;20126;-84
2022/07/25 01:59:10;;;;;;;15.82;10.80;;;;;;;21.81;65.47;100792.50;5078660;28;20036;-84
2022/07/25 02:01:36;;;;;;;14.18;10.50;;;;;;;21.78;65.55;100776.56;5077671;28;20060;-84
2022/07/25 02:04:02;;;;;;;13.68;10.02;;;;;;;21.79;65.44;100783.72;5077670;28;20051;-84
2022/07/25 02:06:27;;;;;;;13.23;9.95;;;;;;;21.73;65.43;100780.16;5077842;28;21449;-85
2022/07/25 02:08:53;;;;;;;15.27;10.18;;;;;;;21.73;65.49;100783.75;5077748;28;20044;-84
2022/07/25 02:11:18;;;;;;;14.23;10.70;;;;;;;21.68;65.44;100777.47;5060856;28;20533;-85
2022/07/25 02:13:43;;;;;;;14.15;10.98;;;;;;;21.69;65.76;100774.41;5081282;28;20136;-84
2022/07/25 02:16:09;;;;;;;14.43;10.13;;;;;;;21.70;65.34;100761.44;5082173;28;20114;-85
2022/07/25 02:18:35;;;;;;;12.68;10.30;;;;;;;21.67;65.68;100767.53;5081437;28;20047;-84
2022/07/25 02:21:00;;;;;;;14.63;10.32;;;;;;;21.70;65.19;100769.72;5082011;28;20040;-84
2022/07/25 02:23:26;;;;;;;16.30;10.02;;;;;;;21.69;65.24;100766.16;5081473;28;20094;-85
2022/07/25 02:25:51;;;;;;;14.00;10.63;;;;;;;21.64;65.75;100771.69;5081050;28;20040;-84
2022/07/25 02:28:17;;;;;;;14.68;10.35;;;;;;;21.63;66.12;100770.03;5081948;28;20031;-85
2022/07/25 02:30:42;;;;;;;16.20;10.32;;;;;;;21.65;65.57;100762.31;5063455;28;20480;-85
2022/07/25 02:33:08;;;;;;;14.40;9.82;;;;;;;21.60;66.18;100770.63;5080984;28;20039;-85
2022/07/25 02:35:34;;;;;;;13.50;10.13;;;;;;;21.65;65.29;100767.00;5081360;28;20089;-85
2022/07/25 02:37:59;;;;;;;14.85;10.50;;;;;;;21.61;66.15;100760.41;5063343;28;20040;-85
2022/07/25 02:40:25;;;;;;;13.48;10.60;;;;;;;21.59;65.64;100752.44;5081658;28;20046;-85
2022/07/25 02:42:50;;;;;;;12.68;9.65;;;;;;;21.53;66.13;100748.09;5081882;28;20051;-85
2022/07/25 02:45:15;;;;;;;15.75;10.50;;;;;;;21.51;65.49;100744.75;5082058;28;20472;-85
2022/07/25 02:47:41;;;;;;;13.57;9.55;;;;;;;21.55;65.61;100748.59;5081143;28;20032;-84
2022/07/25 02:50:07;;;;;;;12.25;9.82;;;;;;;21.53;65.36;100737.06;5081357;28;20111;-85
2022/07/25 02:52:32;;;;;;;14.35;9.88;;;;;;;21.48;66.02;100745.34;5081181;28;20337;-85
2022/07/25 02:54:57;;;;;;;13.27;9.77;;;;;;;21.35;65.93;100722.00;5079321;28;20047;-85
2022/07/25 02:57:23;;;;;;;15.52;9.98;;;;;;;21.46;65.67;100740.13;5061023;28;20619;-84
2022/07/25 02:59:48;;;;;;;15.95;10.23;;;;;;;21.44;65.51;100738.75;5080801;28;20077;-85
2022/07/25 03:02:13;;;;;;;15.48;9.60;;;;;;;21.41;65.86;100735.44;5081493;28;20039;-84
2022/07/25 03:04:39;;;;;;;11.70;9.13;;;;;;;21.40;65.59;100744.81;5081768;28;20032;-84
2022/07/25 03:07:04;;;;;;;13.48;9.95;;;;;;;21.39;65.56;100731.34;5081070;28;20059;-85
2022/07/25 03:09:29;;;;;;;12.68;9.57;;;;;;;21.37;65.76;100728.88;5080737;28;20657;-84
2022/07/25 03:11:55;;;;;;;13.88;9.90;;;;;;;21.34;65.88;100729.44;5062096;28;20032;-85
2022/07/25 03:14:20;;;;;;;14.55;9.80;;;;;;;21.32;66.00;100722.56;5080145;28;20040;-85
2022/07/25 03:16:45;;;;;;;11.20;9.15;;;;;;;21.34;65.55;100723.13;5080197;28;20032;-85
2022/07/25 03:19:12;;;;;;;12.68;9.35;;;;;;;21.33;65.65;100716.78;5061467;28;20056;-85
2022/07/25 03:21:38;;;;;;;13.50;9.35;;;;;;;21.23;65.42;100700.34;5080599;28;20099;-85
2022/07/25 03:24:03;;;;;;;14.30;10.18;;;;;;;21.25;65.28;100703.63;5074759;28;20044;-84
2022/07/25 03:26:28;;;;;;;13.30;9.63;;;;;;;21.26;65.15;100708.03;5073396;28;20596;-84
2022/07/25 03:28:54;;;;;;;12.60;9.43;;;;;;;21.29;65.84;100712.13;5080516;28;20133;-84
2022/07/25 03:31:19;;;;;;;15.43;10.15;;;;;;;21.28;65.53;100711.28;5080149;28;20036;-84
2022/07/25 03:33:45;;;;;;;13.02;9.65;;;;;;;21.31;65.42;100715.41;5079263;28;20058;-85
2022/07/25 03:36:10;;;;;;;13.77;9.75;;;;;;;21.28;65.59;100713.25;5080224;28;20071;-84
2022/07/25 03:38:36;;;;;;;13.48;10.25;;;;;;;21.28;65.70;100710.47;5079824;28;20070;-84
2022/07/25 03:41:33;;;;;;;13.00;10.00;;;;;;;21.29;65.58;100709.38;5079933;28;20513;-85
2022/07/25 03:43:58;;;;;;;14.57;9.55;;;;;;;21.27;65.33;100706.91;5079728;28;20040;-84
2022/07/25 03:46:24;;;;;;;14.68;10.10;;;;;;;21.24;65.79;100712.97;5080524;28;20036;-85
2022/07/25 03:48:49;;;;;;;14.98;9.25;;;;;;;21.24;65.82;100705.56;5061923;28;20040;-85
2022/07/25 03:51:14;;;;;;;13.80;10.27;;;;;;;21.23;65.52;100705.84;5080001;28;20070;-84
2022/07/25 03:56:23;;;;;;;13.43;9.90;;;;;;;21.23;65.76;100709.41;5079614;28;20679;-85
2022/07/25 03:58:49;;;;;;;13.38;9.50;;;;;;;21.19;65.86;100697.31;5079490;28;20037;-85
2022/07/25 04:01:14;;;;;;;15.38;10.00;;;;;;;21.19;66.35;100707.53;5060403;28;20040;-85
2022/07/25 04:03:39;;;;;;;14.30;9.52;;;;;;;21.19;65.65;100704.78;5078659;28;21430;-85
2022/07/25 04:06:05;;;;;;;12.52;9.35;;;;;;;21.07;65.25;100685.84;5079290;28;20138;-85
2022/07/25 04:08:30;;;;;;;17.20;9.85;;;;;;;21.13;65.60;100694.88;5079176;28;20163;-85
2022/07/25 04:10:56;;;;;;;13.13;10.00;;;;;;;21.05;66.22;100688.91;5079319;28;20043;-85
2022/07/25 04:13:21;;;;;;;14.70;10.27;;;;;;;21.10;66.00;100689.97;5079812;28;20658;-85
2022/07/25 04:15:46;;;;;;;14.50;10.32;;;;;;;21.05;66.01;100683.38;5079415;28;20452;-85
2022/07/25 04:18:11;;;;;;;14.73;9.88;;;;;;;21.08;65.99;100688.31;5079718;28;20135;-84
2022/07/25 04:20:37;;;;;;;13.57;9.85;;;;;;;21.04;67.21;100691.94;5078063;28;20071;-85
2022/07/25 04:23:02;;;;;;;15.93;10.15;;;;;;;20.99;67.28;100694.72;5079706;28;20318;-85
2022/07/25 04:25:28;;;;;;;13.63;9.73;;;;;;;20.97;68.95;100692.25;5079024;28;20044;-84
2022/07/25 04:27:53;;;;;;;14.93;9.70;;;;;;;21.00;66.85;100691.69;5059863;28;20040;-85
2022/07/25 04:30:19;;;;;;;13.63;9.38;;;;;;;20.96;65.89;100678.78;5079402;28;20028;-85
2022/07/25 04:32:45;;;;;;;13.63;9.75;;;;;;;21.04;66.21;100683.66;5078312;28;20472;-85
2022/07/25 04:35:10;;;;;;;14.02;9.50;;;;;;;21.08;66.06;100685.56;5078693;28;20396;-84
2022/07/25 04:37:36;;;;;;;15.35;10.13;;;;;;;21.07;66.90;100686.66;5077175;28;20131;-85
2022/07/25 04:40:03;;;;;;;14.30;10.00;;;;;;;21.09;66.79;100672.59;5079141;28;20080;-84
2022/07/25 04:42:28;;;;;;;14.40;9.88;;;;;;;21.06;68.30;100696.03;5079645;28;20040;-84
2022/07/25 04:44:54;;;;;;;12.68;9.40;;;;;;;21.03;68.80;100696.59;5058770;28;20055;-85
2022/07/25 04:47:19;;;;;;;14.07;10.10;;;;;;;21.02;68.13;100691.38;5078181;28;20131;-84
2022/07/25 04:49:45;;;;;;;15.13;9.40;;;;;;;21.05;68.55;100699.06;5078747;28;20081;-84
2022/07/25 04:52:10;;;;;;;19.13;11.38;;;;;;;21.04;67.59;100695.50;5079364;28;20032;-85
2022/07/25 04:54:35;;;;;;;17.27;10.88;;;;;;;21.12;66.79;100693.25;5078766;28;20040;-85
2022/07/25 04:57:03;;;;;;;17.15;10.65;;;;;;;21.18;65.64;100681.09;5078650;28;20028;-85
2022/07/25 04:59:28;;;;;;;15.13;9.88;;;;;;;21.15;65.30;100657.69;5078403;28;20101;-85
2022/07/25 05:01:54;;;;;;;16.80;11.57;;;;;;;21.33;64.60;100672.69;5078589;28;20040;-85
2022/07/25 05:04:19;;;;;;;19.10;11.77;;;;;;;21.32;67.03;100675.72;5078485;28;20699;-85
2022/07/25 05:06:44;;;;;;;18.15;11.73;;;;;;;21.34;65.61;100670.78;5078271;28;21703;-85
2022/07/25 05:09:10;;;;;;;18.65;11.60;;;;;;;21.39;64.68;100673.47;5078562;28;20840;-85
2022/07/25 05:11:35;;;;;;;16.83;11.13;;;;;;;21.50;64.84;100679.69;5078698;28;20039;-85
2022/07/25 05:14:01;;;;;;;14.85;9.75;;;;;;;21.54;63.95;100675.28;5078660;28;20484;-85
2022/07/25 05:16:26;;;;;;;16.95;9.13;;;;;;;21.58;63.88;100671.69;5058998;28;20036;-85
2022/07/25 05:18:51;;;;;;;13.93;8.98;;;;;;;21.65;63.48;100676.00;5078287;28;21372;-85
2022/07/25 05:21:17;;;;;;;14.27;8.27;;;;;;;21.68;63.41;100673.50;5079029;28;20430;-85
2022/07/25 05:23:42;;;;;;;11.10;7.80;;;;;;;21.70;63.10;100674.03;5077941;28;20391;-85
2022/07/25 05:26:08;;;;;;;12.38;8.32;;;;;;;21.77;62.85;100681.16;5059447;28;20032;-85
2022/07/25 05:28:33;;;;;;;10.80;7.72;;;;;;;21.82;63.30;100684.66;5078488;28;20126;-84
2022/07/25 05:30:59;;;;;;;11.73;7.22;;;;;;;21.84;63.42;100685.22;5070034;28;21451;-85
2022/07/25 05:33:25;;;;;;;11.93;7.05;;;;;;;21.86;63.42;100680.22;5077960;28;20166;-84
2022/07/25 05:35:51;;;;;;;8.45;6.78;;;;;;;21.88;63.54;100674.41;5078410;28;20032;-85
2022/07/25 05:38:16;;;;;;;10.00;6.80;;;;;;;21.89;63.69;100674.09;5078555;28;20047;-84
2022/07/25 05:40:42;;;;;;;10.60;7.18;;;;;;;21.95;63.40;100683.16;5077629;28;20039;-85
2022/07/25 05:43:08;;;;;;;10.13;7.13;;;;;;;21.96;63.32;100678.47;5060652;28;20040;-84
2022/07/25 05:45:33;;;;;;;10.68;7.00;;;;;;;21.98;63.29;100685.34;5078360;28;20486;-85
2022/07/25 05:47:59;;;;;;;10.25;7.03;;;;;;;21.93;63.81;100685.38;5082126;28;20027;-85
2022/07/25 05:50:24;;;;;;;11.57;7.50;;;;;;;21.99;64.27;100694.41;5082348;28;20535;-85
2022/07/25 05:52:50;;;;;;;10.30;7.20;;;;;;;21.95;64.49;100687.84;5082186;28;20027;-85
2022/07/25 05:55:16;;;;;;;10.27;7.55;;;;;;;21.94;63.84;100687.03;5082426;28;20032;-84
2022/07/25 05:57:41;;;;;;;9.32;7.30;;;;;;;21.91;64.76;100693.13;5073895;28;20127;-83
2022/07/25 06:00:08;;;;;;;13.75;8.32;;;;;;;21.86;64.18;100690.44;5082039;28;20116;-83
2022/07/25 06:02:33;;;;;;;12.55;7.80;;;;;;;21.81;64.37;100683.00;5081680;28;20040;-84
2022/07/25 06:04:59;;;;;;;12.30;8.10;;;;;;;21.83;64.55;100685.50;5080389;28;20387;-83
2022/07/25 06:07:24;;;;;;;13.05;8.75;;;;;;;21.73;65.36;100692.75;5081834;28;20548;-83
2022/07/25 06:09:50;;;;;;;12.23;8.40;;;;;;;21.70;65.58;100703.53;5082037;28;20043;-83
2022/07/25 06:12:15;;;;;;;12.70;8.60;;;;;;;21.68;65.57;100700.28;5074396;28;20040;-83
2022/07/25 06:14:41;;;;;;;14.25;8.82;;;;;;;21.69;65.74;100713.75;5082005;28;20040;-83
2022/07/25 06:17:06;;;;;;;14.65;9.65;;;;;;;21.65;66.63;100715.44;5081832;28;20043;-84
2022/07/25 06:19:31;;;;;;;13.52;8.98;;;;;;;21.62;66.04;100706.94;5081346;28;20119;-83
2022/07/25 06:21:57;;;;;;;13.65;9.27;;;;;;;21.62;66.54;100712.44;5081271;28;20035;-83
2022/07/25 06:24:22;;;;;;;12.32;9.38;;;;;;;21.61;66.65;100706.13;5081859;28;20131;-83
2022/07/25 06:26:48;;;;;;;13.93;8.52;;;;;;;21.57;67.09;100705.06;5081044;28;20214;-83
2022/07/25 06:29:13;;;;;;;14.50;8.88;;;;;;;21.56;66.30;100706.16;5081027;28;20123;-84
2022/07/25 06:31:38;;;;;;;14.32;9.27;;;;;;;21.50;66.58;100699.84;5080925;28;20064;-83
2022/07/25 06:34:04;;;;;;;13.80;8.90;;;;;;;21.51;66.92;100708.91;5083024;28;20020;-83
2022/07/25 06:36:29;;;;;;;15.57;8.50;;;;;;;21.50;66.57;100712.78;5096069;28;20031;-83
2022/07/25 06:38:54;;;;;;;12.50;8.02;;;;;;;21.52;67.39;100705.06;5107080;28;20039;-83
2022/07/25 06:41:23;;;;;;;13.98;8.18;;;;;;;21.53;66.11;100706.75;5080642;28;20048;-84
2022/07/25 06:43:48;;;;;;;12.18;7.90;;;;;;;21.57;66.44;100716.06;5081498;28;21752;-84
2022/07/25 06:46:13;;;;;;;12.45;8.30;;;;;;;21.57;66.49;100716.88;5081282;28;20040;-84
2022/07/25 06:48:39;;;;;;;14.50;7.72;;;;;;;21.58;66.32;100720.47;5081538;28;20126;-83
2022/07/25 06:51:04;;;;;;;15.98;8.00;;;;;;;21.61;66.58;100714.38;5081001;28;20167;-84
2022/07/25 06:53:30;;;;;;;13.27;7.82;;;;;;;21.62;66.96;100702.22;5080329;28;20179;-83
2022/07/25 06:55:55;;;;;;;13.32;7.68;;;;;;;21.65;65.89;100712.69;5081015;28;20078;-83
2022/07/25 06:58:20;;;;;;;11.30;7.38;;;;;;;21.65;65.81;100715.44;5081739;28;21443;-85
2022/07/25 07:00:46;;;;;;;11.32;6.95;;;;;;;21.61;65.70;100705.28;5080429;28;20097;-85
2022/07/25 07:03:11;;;;;;;11.25;7.03;;;;;;;21.67;66.34;100715.16;5081119;28;20038;-84
2022/07/25 07:05:38;;;;;;;12.02;7.35;;;;;;;21.67;66.24;100713.22;5080522;28;20069;-84
2022/07/25 07:08:05;;;;;;;12.45;7.15;;;;;;;21.64;66.37;100713.81;5081677;28;20043;-84
2022/07/25 07:10:31;;;;;;;8.25;6.03;;;;;;;21.57;65.05;100705.06;5080111;28;20388;-84
2022/07/25 07:13:09;;;;;;;7.18;5.95;;;;;;;21.59;65.50;100706.38;5080363;28;20028;-84
2022/07/25 07:15:37;;;;;;;11.00;6.32;;;;;;;21.58;65.75;100701.16;5053208;28;20035;-83
2022/07/25 07:18:03;;;;;;;13.40;6.28;;;;;;;21.52;66.10;100707.81;5080868;28;20032;-83
2022/07/25 07:20:28;;;;;;;17.90;6.55;;;;;;;21.58;67.70;100709.44;5080088;28;20032;-84
2022/07/25 07:22:54;;;;;;;14.18;5.80;;;;;;;21.58;67.05;100707.50;5080499;28;20063;-85
2022/07/25 07:25:20;;;;;;;17.05;5.80;;;;;;;21.64;66.13;100707.47;5080785;28;20765;-85
2022/07/25 07:27:46;;;;;;;13.57;5.28;;;;;;;21.70;66.31;100709.88;5080672;28;20480;-83
2022/07/25 07:30:13;;;;;;;9.98;5.18;;;;;;;21.73;66.05;100703.78;5080687;28;20032;-83
2022/07/25 07:32:39;;;;;;;13.00;4.90;;;;;;;21.77;66.28;100714.22;5080030;28;20122;-83
2022/07/25 07:35:05;;;;;;;18.00;4.95;;;;;;;21.82;66.30;100712.25;5079797;28;20040;-84
2022/07/25 07:37:30;;;;;;;9.88;4.65;;;;;;;21.90;66.36;100719.88;5079991;28;20043;-84
2022/07/25 07:39:56;;;;;;;9.82;4.35;;;;;;;21.94;65.87;100713.81;5080063;28;20036;-84
2022/07/25 07:42:21;;;;;;;8.10;4.05;;;;;;;21.99;65.96;100717.31;5061439;28;20063;-84
2022/07/25 07:44:46;;;;;;;8.85;4.05;;;;;;;22.08;65.60;100712.78;5080414;28;20377;-83
2022/07/25 07:47:12;;;;;;;7.97;3.70;;;;;;;22.08;65.21;100715.56;5062429;28;20115;-85
2022/07/25 07:49:37;;;;;;;8.23;3.75;;;;;;;22.11;65.36;100718.84;5061194;28;20503;-84
2022/07/25 07:52:03;;;;;;;5.88;3.40;;;;;;;22.05;65.06;100715.34;5081861;28;20054;-84
2022/07/25 07:57:12;;;;;;;4.85;2.90;;;;;;;22.12;65.24;100724.06;5083214;28;20038;-84
2022/07/25 07:59:38;;;;;;;5.45;2.70;;;;;;;22.15;65.59;100723.47;5089016;28;20036;-85
2022/07/25 08:02:03;;;;;;;8.13;3.47;;;;;;;22.34;65.74;100728.25;5079140;28;20081;-85
2022/07/25 08:04:28;;;;;;;7.40;2.90;;;;;;;22.49;65.97;100724.50;5079445;28;20032;-84
2022/07/25 08:06:54;;;;;;;7.97;3.05;;;;;;;22.64;65.40;100735.34;5079231;28;20488;-84
2022/07/25 08:09:20;;;;;;;6.95;2.70;;;;;;;22.72;65.07;100720.88;5078883;28;20060;-85
2022/07/25 08:11:46;;;;;;;8.10;2.70;;;;;;;22.83;65.40;100729.03;5079451;28;20070;-84
2022/07/25 08:14:11;;;;;;;5.93;2.30;;;;;;;22.88;64.70;100726.22;5078969;28;20120;-84
2022/07/25 08:16:36;;;;;;;5.90;2.80;;;;;;;22.99;64.49;100741.50;5079309;28;20408;-85
2022/07/25 08:19:02;;;;;;;7.88;2.70;;;;;;;23.13;65.54;100735.28;5073296;28;20416;-85
2022/07/25 08:21:27;;;;;;;7.78;2.30;;;;;;;23.41;65.67;100734.25;5058943;28;20222;-85
2022/07/25 08:23:53;;;;;;;8.25;2.10;;;;;;;23.50;64.02;100730.81;5080020;28;20380;-84
2022/07/25 08:26:19;;;;;;;8.15;2.10;;;;;;;23.60;64.75;100727.88;5079340;28;20112;-84
2022/07/25 08:28:44;;;;;;;7.82;2.00;;;;;;;23.67;64.30;100727.50;5079357;28;20772;-83
2022/07/25 08:31:09;;;;;;;3.03;1.70;;;;;;;23.65;63.60;100736.09;5060949;28;20119;-83
2022/07/25 08:33:35;;;;;;;6.47;1.90;;;;;;;23.54;65.04;100729.09;5060344;28;20483;-83
2022/07/25 08:36:00;;;;;;;6.72;2.00;;;;;;;23.51;64.88;100724.97;5079147;28;20487;-84
2022/07/25 08:38:27;;;;;;;5.40;1.70;;;;;;;23.52;65.22;100742.41;5079216;28;21359;-83
2022/07/25 08:40:54;;;;;;;4.80;1.90;;;;;;;23.37;64.93;100744.28;5093781;28;20055;-84
2022/07/25 08:43:19;;;;;;;6.60;1.88;;;;;;;23.34;64.51;100755.94;5074970;28;20012;-84
2022/07/25 08:45:52;;;;;;;6.60;1.90;;;;;;;23.33;64.94;100745.19;5082216;28;20040;-83
2022/07/25 08:48:21;;;;;;;4.45;1.80;;;;;;;23.32;65.83;100747.13;5079137;28;20730;-84
2022/07/25 08:50:48;;;;;;;6.35;1.70;;;;;;;23.34;65.60;100728.31;5054118;28;20655;-85
2022/07/25 08:53:16;;;;;;;4.20;2.20;;;;;;;23.68;67.48;100742.97;5077139;28;20032;-84
2022/07/25 08:55:44;;;;;;;3.53;1.60;;;;;;;24.15;66.06;100741.00;5079042;28;20038;-84
2022/07/25 08:58:10;;;;;;;6.28;2.00;;;;;;;24.39;64.27;100749.13;5077605;28;20036;-86
2022/07/25 09:00:35;;;;;;;5.32;1.77;;;;;;;24.58;62.64;100742.69;5077065;28;20047;-83
2022/07/25 09:03:02;;;;;;;7.03;1.98;;;;;;;24.48;61.86;100749.25;5077990;28;20479;-83
2022/07/25 09:05:30;;;;;;;4.47;1.75;;;;;;;24.66;60.10;100758.59;5078484;28;20129;-82
2022/07/25 09:07:57;;;;;;;4.07;1.73;;;;;;;24.51;60.68;100754.16;5079271;28;20118;-84
2022/07/25 09:10:25;;;;;;;5.65;2.13;;;;;;;24.43;60.24;100764.00;5078777;28;20044;-85
2022/07/25 09:12:53;;;;;;;8.27;2.55;;;;;;;24.40;61.66;100759.09;5059478;28;20221;-82
2022/07/25 09:15:28;;;;;;;6.70;1.90;;;;;;;24.47;61.02;100758.69;5078351;28;20113;-85
2022/07/25 09:17:55;;;;;;;7.47;1.90;;;;;;;24.50;61.91;100754.47;5078439;28;20047;-84
2022/07/25 09:20:21;;;;;;;4.32;1.63;;;;;;;24.56;60.02;100761.53;5078328;28;20094;-83
2022/07/25 09:22:47;;;;;;;4.75;1.88;;;;;;;24.59;59.12;100761.75;5077506;28;20457;-83
2022/07/25 09:25:39;;;;;;;5.45;1.95;;;;;;;24.84;58.96;100759.59;5078325;28;20053;-83
2022/07/25 09:28:18;;;;;;;5.20;1.80;;;;;;;24.83;59.13;100771.78;5056574;28;20559;-85
2022/07/25 09:30:54;;;;;;;10.10;2.00;;;;;;;24.72;59.27;100762.06;5060439;28;20431;-83
2022/07/25 09:33:22;;;;;;;5.70;1.85;;;;;;;24.64;59.47;100774.69;5059280;28;20036;-84
2022/07/25 09:35:47;;;;;;;4.75;2.00;;;;;;;24.65;59.79;100768.03;5078333;28;20035;-84
2022/07/25 09:38:14;;;;;;;6.22;2.10;;;;;;;24.80;58.79;100768.84;5077379;28;20215;-82
2022/07/25 09:40:41;;;;;;;6.75;1.90;;;;;;;24.80;57.70;100777.97;5076889;28;20039;-83
2022/07/25 09:43:08;;;;;;;4.93;1.90;;;;;;;24.75;57.80;100787.22;5077803;28;20127;-85
2022/07/25 09:45:33;;;;;;;6.57;1.95;;;;;;;24.76;59.12;100785.25;5078566;28;21260;-84
2022/07/25 09:48:03;;;;;;;5.82;2.00;;;;;;;24.74;57.66;100787.53;5077464;28;20113;-82
2022/07/25 09:50:32;;;;;;;8.80;2.30;;;;;;;24.63;57.76;100786.94;5078096;28;20036;-82
2022/07/25 09:53:02;;;;;;;7.20;2.22;;;;;;;24.88;57.52;100793.06;5077798;28;20529;-85
2022/07/25 09:55:28;;;;;;;12.85;2.40;;;;;;;24.88;56.99;100791.09;5078165;28;21430;-84
2022/07/25 09:57:54;;;;;;;7.32;2.30;;;;;;;24.91;57.86;100789.66;5078121;28;20050;-84
2022/07/25 10:00:24;;;;;;;6.55;2.33;;;;;;;25.02;57.57;100791.06;5078452;28;20021;-84
2022/07/25 10:03:14;;;;;;;6.97;2.22;;;;;;;25.20;56.12;100785.69;5077215;28;20088;-84
2022/07/25 10:05:55;;;;;;;3.75;1.83;;;;;;;25.28;56.61;100798.78;5077397;28;20748;-83
2022/07/25 10:08:21;;;;;;;6.35;2.40;;;;;;;25.34;56.52;100794.81;5077867;28;20059;-83
2022/07/25 10:10:47;;;;;;;5.78;2.30;;;;;;;25.48;57.00;100791.19;5077481;28;20372;-83
2022/07/25 10:13:16;;;;;;;5.72;2.47;;;;;;;25.86;57.01;100793.56;5077174;28;20040;-83
2022/07/25 10:15:45;;;;;;;6.55;2.40;;;;;;;26.21;55.47;100802.13;5082695;28;20405;-84
2022/07/25 10:18:11;;;;;;;5.38;2.38;;;;;;;26.37;56.01;100800.56;5082169;28;20060;-82
2022/07/25 10:20:36;;;;;;;7.47;2.30;;;;;;;26.82;54.95;100799.59;5093498;28;20069;-82
2022/07/25 10:23:03;;;;;;;5.32;2.40;;;;;;;26.74;52.15;100804.00;5093203;28;20451;-82
2022/07/25 10:25:28;;;;;;;7.80;2.20;;;;;;;26.81;51.55;100803.53;5060858;28;20131;-83
2022/07/25 10:27:59;;;;;;;5.72;2.22;;;;;;;26.78;52.14;100791.09;5077546;28;20506;-82
2022/07/25 10:30:35;;;;;;;8.27;2.58;;;;;;;27.11;51.73;100796.19;5077991;28;20071;-83
2022/07/25 10:33:10;;;;;;;7.90;2.28;;;;;;;26.89;50.73;100790.78;5078513;28;20028;-84
2022/07/25 10:35:36;;;;;;;4.47;2.50;;;;;;;26.68;51.51;100777.44;5081196;28;20032;-83
2022/07/25 10:38:03;;;;;;;6.93;2.40;;;;;;;26.81;50.98;100794.38;5081335;28;20038;-84
2022/07/25 10:40:33;;;;;;;8.10;2.38;;;;;;;26.84;51.42;100797.31;5081324;28;20028;-83
2022/07/25 10:43:17;;;;;;;5.03;2.03;;;;;;;26.86;52.40;100785.84;5081681;28;20101;-81
2022/07/25 10:45:47;;;;;;;5.03;2.25;;;;;;;27.03;50.50;100797.00;5079448;28;20044;-82
2022/07/25 10:48:26;;;;;;;6.70;2.28;;;;;;;27.45;50.42;100789.03;5081429;28;20081;-83
2022/07/25 10:50:59;;;;;;;6.88;2.10;;;;;;;27.40;50.32;100802.31;5081079;28;21966;-82
2022/07/25 10:53:29;;;;;;;8.00;2.20;;;;;;;27.37;49.31;100811.31;5081286;28;20032;-81
2022/07/25 10:56:03;;;;;;;6.25;2.05;;;;;;;26.90;48.73;100812.69;5081659;28;20126;-84
2022/07/25 10:58:39;;;;;;;;;;;;;;;27.35;47.23;100811.63;5086552;28;20471;-82
2022/07/25 11:01:05;;;;;;;6.75;2.15;;;;;;;26.68;48.91;100819.13;5068548;28;19919;-82
2022/07/25 11:03:32;;;;;;;7.63;2.20;;;;;;;26.82;49.41;100815.44;5100136;28;20040;-82
2022/07/25 11:05:57;;;;;;;5.63;2.35;;;;;;;26.69;49.57;100817.19;5095589;28;20387;-82
2022/07/25 11:08:33;;;;;;;7.32;2.45;;;;;;;26.63;49.34;100813.75;5105995;28;20044;-82
2022/07/25 11:10:58;;;;;;;4.63;2.28;;;;;;;26.27;50.13;100835.00;5095061;28;20028;-82
2022/07/25 11:13:24;;;;;;;5.25;2.33;;;;;;;25.97;49.62;100824.66;5101089;28;20079;-82
2022/07/25 11:15:50;;;;;;;6.93;2.20;;;;;;;25.88;51.85;100832.91;5116668;28;20027;-83
2022/07/25 11:18:17;;;;;;;7.93;2.80;;;;;;;25.70;52.00;100831.97;5097888;28;20028;-81
2022/07/25 11:20:42;;;;;;;4.30;2.50;;;;;;;25.56;52.72;100832.84;5095715;28;20060;-81